Time;durP1;ratioP1;P1;durP2;ratioP2;P2;SDS_P1;SDS_P2;PMS_P1;PMS_P2;Temp;Humidity;BMP_temperature;BMP_pressure;BME280_temperature;BME280_humidity;BME280_pressure;Samples;Min_cycle;Max_cycle;Signal;HPM_P1;HPM_P2
2023/08/10 00:01:24;;;;;;;7.43;2.45;;;16.00;99.90;;;16.65;66.91;101013.94;4963529;28;20070;-79
2023/08/10 00:03:53;;;;;;;9.43;2.30;;;16.00;99.90;;;16.66;66.91;101012.06;4953099;28;20102;-80
2023/08/10 00:06:21;;;;;;;6.63;2.22;;;16.00;99.90;;;16.64;66.96;101006.94;4962966;28;20047;-79
2023/08/10 00:08:49;;;;;;;5.95;2.20;;;16.00;99.90;;;16.64;66.89;101012.31;4957436;28;20075;-79
2023/08/10 00:11:17;;;;;;;4.75;2.30;;;16.00;99.90;;;16.63;66.98;101009.84;4953666;29;20047;-79
2023/08/10 00:13:44;;;;;;;7.85;2.67;;;15.90;99.90;;;16.60;67.34;100999.56;4957120;28;20051;-79
2023/08/10 00:16:11;;;;;;;7.53;2.53;;;15.90;99.90;;;16.60;67.47;101010.34;4959625;28;20042;-79
2023/08/10 00:18:39;;;;;;;8.57;2.50;;;15.90;99.90;;;16.62;67.35;101009.03;4953419;28;20497;-79
2023/08/10 00:21:07;;;;;;;7.43;2.22;;;15.90;99.90;;;16.61;67.59;101014.66;4970801;28;20459;-79
2023/08/10 00:23:34;;;;;;;5.78;2.42;;;15.90;99.90;;;16.61;67.63;101020.06;4955757;28;20038;-79
2023/08/10 00:26:02;;;;;;;6.60;2.25;;;15.90;99.90;;;16.61;67.77;101020.06;4960973;28;20405;-79
2023/08/10 00:28:30;;;;;;;9.10;2.38;;;15.90;99.90;;;16.61;67.87;101025.44;4950721;28;20107;-79
2023/08/10 00:30:57;;;;;;;6.78;2.53;;;15.90;99.90;;;16.60;68.04;101021.09;4966856;28;20138;-79
2023/08/10 00:33:25;;;;;;;6.10;2.33;;;15.90;99.90;;;16.59;68.04;101014.06;4952876;28;20047;-79
2023/08/10 00:35:52;;;;;;;14.43;2.78;;;15.90;99.90;;;16.58;68.01;101017.81;4943772;28;20054;-79
2023/08/10 00:38:20;;;;;;;6.18;2.70;;;15.90;99.90;;;16.56;67.86;101017.25;4954805;28;20136;-79
2023/08/10 00:40:48;;;;;;;6.40;2.40;;;15.90;99.90;;;16.55;68.13;101008.34;4956208;28;20162;-79
2023/08/10 00:43:15;;;;;;;12.13;2.92;;;15.90;99.90;;;16.54;68.16;101017.47;4946181;28;20047;-79
2023/08/10 00:45:42;;;;;;;5.65;2.42;;;15.90;99.90;;;16.54;68.35;101024.72;4970251;28;20074;-79
2023/08/10 00:48:10;;;;;;;6.95;2.78;;;15.90;99.90;;;16.52;68.24;101024.16;4955304;28;20054;-79
2023/08/10 00:50:38;;;;;;;7.07;2.40;;;15.90;99.90;;;16.51;68.30;101017.16;4951281;29;20062;-79
2023/08/10 00:53:05;;;;;;;9.95;2.90;;;15.90;99.90;;;16.50;68.22;101005.56;4953588;28;20075;-79
2023/08/10 00:55:35;;;;;;;6.50;2.60;;;15.90;99.90;;;16.50;68.41;101010.13;4961948;28;20137;-79
2023/08/10 00:58:03;;;;;;;7.27;2.93;;;15.80;99.90;;;16.50;68.42;101010.94;4953112;28;20048;-79
2023/08/10 01:00:31;;;;;;;8.75;2.83;;;15.90;99.90;;;16.50;68.50;101016.31;4973706;28;20046;-79
2023/08/10 01:02:58;;;;;;;8.50;2.50;;;15.90;99.90;;;16.48;68.49;101013.84;4969498;28;20043;-79
2023/08/10 01:05:29;;;;;;;9.30;2.60;;;15.80;99.90;;;16.48;68.77;101011.16;4959718;28;20098;-79
2023/08/10 01:08:04;;;;;;;8.02;2.53;;;15.80;99.90;;;16.50;68.82;101007.44;4963925;28;20106;-79
2023/08/10 01:10:45;;;;;;;5.40;2.22;;;15.80;99.90;;;16.50;68.79;101015.50;4954012;28;20066;-79
2023/08/10 01:13:23;;;;;;;8.32;2.58;;;15.80;99.90;;;16.50;68.90;101012.81;4961646;28;20042;-79
2023/08/10 01:15:57;;;;;;;6.88;2.30;;;15.90;99.90;;;16.50;69.11;101013.63;4971878;28;20071;-79
2023/08/10 01:18:28;;;;;;;6.35;2.22;;;15.80;99.90;;;16.50;69.03;101007.44;4962255;28;20047;-79
2023/08/10 01:20:57;;;;;;;6.63;2.40;;;15.90;99.90;;;16.47;69.31;101012.22;4958023;28;20852;-79
2023/08/10 01:23:31;;;;;;;5.40;2.42;;;15.80;99.90;;;16.47;69.29;101014.91;4968399;28;20700;-79
2023/08/10 01:26:00;;;;;;;5.88;2.60;;;15.80;99.90;;;16.47;69.46;101023.00;4959059;28;20444;-79
2023/08/10 01:28:28;;;;;;;7.15;2.50;;;15.90;99.90;;;16.46;69.47;101018.66;4945800;28;20130;-79
2023/08/10 01:30:56;;;;;;;6.65;2.60;;;15.90;99.90;;;16.47;69.50;101014.09;4949853;29;20142;-79
2023/08/10 01:33:23;;;;;;;7.32;2.60;;;15.80;99.90;;;16.47;69.43;101012.22;4955529;28;20067;-79
2023/08/10 01:35:50;;;;;;;6.53;2.40;;;15.90;99.90;;;16.46;69.46;101024.06;4971510;28;20039;-79
2023/08/10 01:38:17;;;;;;;5.10;2.10;;;15.90;99.90;;;16.46;69.48;101025.94;4971109;28;20098;-79
2023/08/10 01:40:45;;;;;;;6.85;2.40;;;15.80;99.90;;;16.45;69.78;101027.00;4967158;28;20115;-79
2023/08/10 01:43:15;;;;;;;8.40;2.78;;;15.80;99.90;;;16.45;69.88;101033.19;4958251;28;20028;-79
2023/08/10 01:45:49;;;;;;;7.50;2.40;;;15.80;99.90;;;16.44;69.93;101038.78;4959253;28;20054;-79
2023/08/10 01:48:21;;;;;;;6.75;2.35;;;15.80;99.90;;;16.45;69.67;101038.56;4974300;28;20515;-79
2023/08/10 01:50:53;;;;;;;8.30;2.30;;;15.80;99.90;;;16.44;69.51;101038.78;4963648;28;20131;-79
2023/08/10 01:53:25;;;;;;;;;;;15.80;99.90;;;16.44;69.62;101049.56;4973103;28;20117;-79
2023/08/10 01:55:53;;;;;;;7.10;2.47;;;15.80;99.90;;;16.39;69.70;101047.56;4957766;28;20256;-79
2023/08/10 01:58:22;;;;;;;8.20;2.70;;;15.80;99.90;;;16.37;69.67;101044.31;4954970;29;20122;-79
2023/08/10 02:00:49;;;;;;;8.90;3.05;;;15.80;99.90;;;16.37;69.50;101038.13;4955467;29;20578;-79
2023/08/10 02:03:17;;;;;;;8.65;2.58;;;15.70;99.90;;;16.34;69.30;101058.22;4958025;28;20142;-79
2023/08/10 02:05:44;;;;;;;7.40;2.45;;;15.70;99.90;;;16.29;69.36;101050.03;4965865;28;20070;-79
2023/08/10 02:08:13;;;;;;;5.47;2.30;;;15.70;99.90;;;16.26;69.48;101057.78;4955725;29;20059;-79
2023/08/10 02:10:40;;;;;;;5.07;2.40;;;15.60;99.90;;;16.26;69.45;101058.59;4948964;28;20666;-79
2023/08/10 02:13:07;;;;;;;5.45;2.45;;;15.60;99.90;;;16.27;69.33;101052.16;4972736;28;20039;-79
2023/08/10 02:15:36;;;;;;;5.35;2.53;;;15.60;99.90;;;16.27;69.34;101062.13;4959346;28;20058;-79
2023/08/10 02:18:04;;;;;;;8.23;2.33;;;15.60;99.90;;;16.27;69.41;101049.47;4950947;28;20055;-79
2023/08/10 02:20:31;;;;;;;8.40;2.53;;;15.60;99.90;;;16.27;69.56;101056.72;4951065;29;20501;-79
2023/08/10 02:22:59;;;;;;;4.93;2.20;;;15.60;99.90;;;16.26;69.63;101063.16;4972235;28;20050;-79
2023/08/10 02:25:26;;;;;;;12.10;3.00;;;15.60;99.90;;;16.26;69.78;101060.47;4941373;29;20150;-79
2023/08/10 02:27:53;;;;;;;6.57;2.50;;;15.60;99.90;;;16.25;69.78;101056.97;4940602;29;20126;-79
2023/08/10 02:30:21;;;;;;;7.50;2.75;;;15.60;99.90;;;16.25;69.97;101056.97;4954539;29;20679;-79
2023/08/10 02:32:50;;;;;;;8.93;2.75;;;15.60;99.90;;;16.24;70.13;101052.63;4953053;28;20402;-79
2023/08/10 02:35:18;;;;;;;8.82;3.13;;;15.60;99.90;;;16.22;70.02;101052.88;4956547;28;20062;-79
2023/08/10 02:37:45;;;;;;;7.00;2.88;;;15.60;99.90;;;16.22;70.32;101052.88;4961766;28;20048;-79
2023/08/10 02:40:13;;;;;;;7.35;2.65;;;15.60;99.90;;;16.22;70.34;101039.41;4959765;28;20046;-79
2023/08/10 02:42:42;;;;;;;9.60;2.85;;;15.60;99.90;;;16.23;70.48;101054.50;4957940;28;20067;-79
2023/08/10 02:45:12;;;;;;;8.07;2.40;;;15.60;99.90;;;16.23;70.67;101041.03;4956489;28;20109;-79
2023/08/10 02:47:39;;;;;;;7.65;2.58;;;15.60;99.90;;;16.23;70.49;101038.34;4967669;28;20077;-79
2023/08/10 02:50:11;;;;;;;8.48;2.97;;;15.60;99.90;;;16.25;70.57;101035.44;4955617;28;20141;-79
2023/08/10 02:52:38;;;;;;;8.63;3.07;;;15.60;99.90;;;16.25;70.73;101040.81;4962496;28;20411;-79
2023/08/10 02:55:07;;;;;;;9.25;2.85;;;15.60;99.90;;;16.25;70.84;101040.81;4966949;28;20310;-79
2023/08/10 02:57:35;;;;;;;9.93;2.97;;;15.60;99.90;;;16.26;70.73;101042.44;4964054;28;20050;-79
2023/08/10 03:00:06;;;;;;;8.15;2.72;;;15.60;99.90;;;16.26;70.87;101038.94;4956928;28;20488;-79
2023/08/10 03:02:33;;;;;;;7.28;3.05;;;15.70;99.90;;;16.25;70.86;101038.13;4953401;29;20125;-79
2023/08/10 03:05:05;;;;;;;9.37;3.60;;;15.60;99.90;;;16.26;70.96;101047.84;4954940;28;20070;-79
2023/08/10 03:07:34;;;;;;;6.65;3.00;;;15.60;99.90;;;16.25;70.98;101038.13;4950288;29;20278;-79
2023/08/10 03:10:02;;;;;;;9.00;2.78;;;15.60;99.90;;;16.25;70.94;101037.28;4967508;28;20054;-79
2023/08/10 03:12:31;;;;;;;7.13;3.00;;;15.60;99.90;;;16.25;71.03;101043.50;4973024;28;20475;-79
2023/08/10 03:14:59;;;;;;;6.32;2.72;;;15.60;99.90;;;16.24;70.94;101033.78;4957157;28;20075;-79
2023/08/10 03:17:27;;;;;;;9.73;3.40;;;15.60;99.90;;;16.26;71.08;101037.06;4954646;29;20051;-79
2023/08/10 03:19:54;;;;;;;10.18;3.05;;;15.70;99.90;;;16.25;71.08;101030.06;4955493;28;20051;-79
2023/08/10 03:22:25;;;;;;;10.18;3.25;;;15.60;99.90;;;16.22;71.04;101031.34;4966380;28;20035;-79
2023/08/10 03:24:54;;;;;;;11.68;3.15;;;15.70;99.90;;;16.20;71.21;101025.38;4962339;28;20058;-79
2023/08/10 03:27:22;;;;;;;7.97;2.97;;;15.60;99.90;;;16.22;71.22;101030.50;4954415;29;20050;-79
2023/08/10 03:29:49;;;;;;;6.45;3.17;;;15.60;99.90;;;16.22;71.79;101036.72;4969539;28;20173;-79
2023/08/10 03:32:16;;;;;;;9.60;2.80;;;15.60;99.90;;;16.23;71.65;101037.53;4953506;28;20078;-79
2023/08/10 03:34:44;;;;;;;10.38;3.15;;;15.60;99.90;;;16.20;71.66;101033.44;4958514;28;20081;-79
2023/08/10 03:37:12;;;;;;;9.65;2.92;;;15.60;99.90;;;16.19;71.62;101036.34;4969424;28;20066;-79
2023/08/10 03:39:40;;;;;;;7.03;3.00;;;15.60;99.90;;;16.19;71.67;101044.44;4947387;29;20722;-79
2023/08/10 03:42:09;;;;;;;7.75;2.70;;;15.60;99.90;;;16.18;71.57;101040.91;4985240;28;20070;-79
2023/08/10 03:44:36;;;;;;;7.80;2.90;;;15.60;99.90;;;16.17;71.63;101050.06;4967907;28;20053;-79
2023/08/10 03:47:03;;;;;;;7.57;3.05;;;15.60;99.90;;;16.16;71.74;101051.13;4966589;28;20078;-79
2023/08/10 03:49:31;;;;;;;6.88;2.88;;;15.60;99.90;;;16.15;71.64;101051.31;4945272;28;20051;-79
2023/08/10 03:51:58;;;;;;;7.88;3.03;;;15.60;99.90;;;16.08;71.61;101043.38;4981909;28;20050;-79
2023/08/10 03:54:26;;;;;;;6.80;2.75;;;15.50;99.90;;;16.07;71.55;101054.38;4959083;28;20043;-79
2023/08/10 03:56:54;;;;;;;5.25;2.50;;;15.50;99.90;;;16.06;71.40;101058.94;4962392;28;20085;-79
2023/08/10 03:59:23;;;;;;;6.50;2.65;;;15.50;99.90;;;16.04;71.20;101061.03;4967326;28;20455;-79
2023/08/10 04:01:52;;;;;;;7.18;2.67;;;15.40;99.90;;;16.03;71.04;101064.78;4966116;28;20058;-85
2023/08/10 04:04:20;;;;;;;6.85;3.08;;;15.40;99.90;;;16.01;71.04;101076.84;4961542;28;20059;-79
2023/08/10 04:06:47;;;;;;;6.40;2.50;;;15.40;99.90;;;15.99;70.80;101078.94;4953680;28;20039;-81
2023/08/10 04:09:14;;;;;;;10.10;3.00;;;15.40;99.90;;;15.97;70.71;101071.09;4959749;28;20054;-80
2023/08/10 04:11:41;;;;;;;7.97;2.83;;;15.40;99.90;;;15.94;70.37;101077.75;4956552;28;20132;-81
2023/08/10 04:14:10;;;;;;;4.43;2.30;;;15.30;99.90;;;15.92;70.20;101068.28;4954631;28;20047;-81
2023/08/10 04:16:39;;;;;;;6.13;3.00;;;15.30;99.90;;;15.90;70.20;101073.88;4955528;28;20498;-82
2023/08/10 04:19:06;;;;;;;9.52;2.75;;;15.30;99.90;;;15.90;70.31;101087.34;4969000;28;20493;-82
2023/08/10 04:21:33;;;;;;;7.68;2.70;;;15.30;99.90;;;15.89;70.26;101085.69;4979469;28;20126;-82
2023/08/10 04:24:01;;;;;;;5.72;2.55;;;15.30;99.90;;;15.88;70.23;101083.25;5153443;23;20048;-84
2023/08/10 04:26:28;;;;;;;7.35;2.65;;;15.20;99.90;;;15.87;70.10;101093.19;4992181;28;20125;-84
2023/08/10 04:28:55;;;;;;;6.38;2.72;;;15.20;99.90;;;15.85;69.87;101089.91;4991069;28;20452;-84
2023/08/10 04:31:23;;;;;;;8.45;2.60;;;15.20;99.90;;;15.84;69.83;101098.22;4990931;28;20038;-83
2023/08/10 04:33:52;;;;;;;9.93;3.00;;;15.20;99.90;;;15.81;69.84;101094.13;4989513;28;20042;-83
2023/08/10 04:36:19;;;;;;;10.23;3.03;;;15.10;99.90;;;15.79;69.73;101096.22;4991808;28;20050;-83
2023/08/10 04:38:46;;;;;;;10.23;3.17;;;15.10;99.90;;;15.77;69.62;101092.13;4992042;28;20070;-83
2023/08/10 04:41:13;;;;;;;9.52;2.90;;;15.10;99.90;;;15.74;69.71;101106.84;4986760;28;20074;-84
2023/08/10 04:43:40;;;;;;;7.50;3.35;;;15.10;99.90;;;15.74;69.72;101101.47;4985918;28;20058;-84
2023/08/10 04:46:08;;;;;;;4.72;2.58;;;15.10;99.90;;;15.75;69.72;101102.28;4995126;28;20129;-83
2023/08/10 04:48:35;;;;;;;8.10;3.17;;;15.10;99.90;;;15.73;69.74;101102.50;4985156;28;20121;-82
2023/08/10 04:51:07;;;;;;;8.35;2.88;;;15.10;99.90;;;15.73;69.63;101096.31;4990111;28;20046;-81
2023/08/10 04:53:34;;;;;;;6.22;3.10;;;15.10;99.90;;;15.72;69.71;101105.44;4986459;28;20042;-82
2023/08/10 04:56:01;;;;;;;10.18;3.10;;;15.00;99.90;;;15.69;69.65;101104.00;4986706;28;20077;-81
2023/08/10 04:58:28;;;;;;;6.80;2.78;;;15.00;99.90;;;15.66;69.79;101108.00;4986101;28;20048;-81
2023/08/10 05:00:56;;;;;;;6.45;2.63;;;15.00;99.90;;;15.65;69.93;101110.91;4990044;28;20554;-81
2023/08/10 05:03:23;;;;;;;6.60;2.75;;;15.00;99.90;;;15.66;69.83;101109.84;4992341;28;20034;-82
2023/08/10 05:05:51;;;;;;;8.73;3.30;;;15.00;99.90;;;15.67;69.84;101108.81;4991389;28;20054;-81
2023/08/10 05:08:21;;;;;;;6.30;2.67;;;15.00;99.90;;;15.69;69.67;101107.53;4988171;28;20125;-81
2023/08/10 05:10:49;;;;;;;6.63;2.88;;;15.10;99.90;;;15.76;69.88;101115.47;4992189;28;20050;-81
2023/08/10 05:13:17;;;;;;;6.13;2.80;;;15.10;99.90;;;15.82;70.01;101111.91;4990257;28;20041;-81
2023/08/10 05:15:44;;;;;;;7.10;2.97;;;15.20;99.90;;;15.92;69.97;101117.53;4992380;28;20092;-81
2023/08/10 05:18:12;;;;;;;8.57;3.35;;;15.30;99.90;;;16.00;69.84;101115.53;5006274;28;20092;-81
2023/08/10 05:20:39;;;;;;;9.25;3.60;;;15.40;99.90;;;16.06;69.97;101110.06;4991733;28;20501;-81
2023/08/10 05:23:06;;;;;;;9.40;3.55;;;15.50;99.90;;;16.16;69.89;101106.81;4989614;28;20108;-81
2023/08/10 05:25:35;;;;;;;12.95;3.60;;;15.60;99.90;;;16.22;69.87;101113.94;5005190;28;20038;-82
2023/08/10 05:28:02;;;;;;;15.05;3.70;;;15.70;99.90;;;16.29;70.19;101119.22;4991165;28;20951;-83
2023/08/10 05:30:29;;;;;;;10.60;4.05;;;15.80;99.90;;;16.35;70.23;101112.91;4990359;28;20133;-83
2023/08/10 05:32:56;;;;;;;6.43;3.63;;;15.90;99.90;;;16.40;70.30;101113.03;4991310;28;20048;-82
2023/08/10 05:35:24;;;;;;;9.88;4.18;;;16.00;99.90;;;16.48;70.18;101110.78;4992086;28;20472;-83
2023/08/10 05:37:51;;;;;;;8.50;3.80;;;16.10;99.90;;;16.57;70.40;101105.06;4991213;28;20069;-83
2023/08/10 05:40:18;;;;;;;10.77;3.83;;;16.30;99.90;;;16.67;70.38;101105.28;4992977;28;20043;-83
2023/08/10 05:42:47;;;;;;;11.05;4.20;;;16.50;99.90;;;16.77;70.21;101096.63;4991083;28;20046;-83
2023/08/10 05:45:19;;;;;;;10.73;4.20;;;16.60;99.90;;;16.88;70.01;101103.88;4989625;28;20069;-83
2023/08/10 05:47:47;;;;;;;13.82;4.50;;;16.70;99.90;;;16.96;69.58;101104.31;5002542;28;20057;-83
2023/08/10 05:50:15;;;;;;;10.73;4.00;;;16.90;99.90;;;17.02;68.90;101109.81;5015738;28;20038;-83
2023/08/10 05:52:43;;;;;;;9.18;4.30;;;17.00;99.90;;;17.07;68.76;101110.75;4991976;28;20046;-83
2023/08/10 05:55:10;;;;;;;11.07;4.00;;;17.00;99.90;;;17.13;69.00;101117.03;4992251;28;20108;-83
2023/08/10 05:57:38;;;;;;;10.13;3.63;;;17.10;99.90;;;17.18;69.53;101114.47;4990042;28;20555;-83
2023/08/10 06:00:09;;;;;;;11.75;3.90;;;17.20;99.90;;;17.21;69.04;101117.50;4992164;28;20034;-83
2023/08/10 06:02:40;;;;;;;13.55;4.10;;;17.10;99.90;;;17.20;69.65;101107.78;4991416;28;20046;-83
2023/08/10 06:05:08;;;;;;;10.73;3.88;;;17.20;99.90;;;17.23;70.09;101109.19;4983259;28;20054;-83
2023/08/10 06:07:36;;;;;;;10.98;3.97;;;17.30;99.90;;;17.29;69.84;101110.09;4992243;28;20049;-83
2023/08/10 06:10:04;;;;;;;10.80;4.18;;;17.30;99.90;;;17.34;69.77;101111.03;4992355;28;20483;-83
2023/08/10 06:12:32;;;;;;;12.05;4.18;;;17.30;99.90;;;17.40;69.74;101120.84;4991950;28;20045;-83
2023/08/10 06:14:59;;;;;;;11.68;4.30;;;17.40;99.90;;;17.47;70.05;101116.13;4991636;28;20054;-83
2023/08/10 06:17:28;;;;;;;9.27;3.97;;;17.50;99.90;;;17.54;69.37;101118.69;4989720;28;20480;-83
2023/08/10 06:19:57;;;;;;;10.18;4.03;;;17.50;99.90;;;17.64;69.31;101110.78;4990895;28;20050;-83
2023/08/10 06:22:24;;;;;;;9.38;3.45;;;17.70;99.90;;;17.74;69.36;101102.06;4991877;28;20050;-83
2023/08/10 06:24:52;;;;;;;12.85;3.92;;;17.70;99.90;;;17.83;68.20;101103.31;4991084;28;20483;-83
2023/08/10 06:27:20;;;;;;;12.13;4.18;;;17.80;99.90;;;17.88;66.93;101098.00;4991293;28;20042;-83
2023/08/10 06:29:47;;;;;;;11.82;3.75;;;18.00;99.90;;;17.96;66.70;101096.78;4989726;28;20129;-83
2023/08/10 06:32:14;;;;;;;9.52;3.60;;;18.00;99.90;;;18.07;67.02;101101.28;4982183;28;20455;-83
2023/08/10 06:34:42;;;;;;;11.15;3.95;;;18.20;99.90;;;18.14;65.88;101099.22;4991686;28;20050;-83
2023/08/10 06:37:12;;;;;;;11.13;3.83;;;18.20;99.90;;;18.23;66.68;101099.63;4991992;28;20114;-83
2023/08/10 06:39:41;;;;;;;8.95;3.65;;;18.30;99.90;;;18.32;64.36;101103.56;4992100;28;20415;-83
2023/08/10 06:42:08;;;;;;;10.25;3.30;;;18.50;99.70;;;18.39;65.69;101108.78;4989672;28;20068;-83
2023/08/10 06:44:38;;;;;;;13.98;3.90;;;18.60;99.90;;;18.46;65.82;101104.84;4990288;28;20034;-83
2023/08/10 06:47:05;;;;;;;10.88;3.35;;;18.60;99.90;;;18.47;65.22;101116.47;4994187;28;20042;-83
2023/08/10 06:49:32;;;;;;;9.27;4.10;;;18.60;99.80;;;18.52;64.64;101106.56;4992587;28;20035;-84
2023/08/10 06:52:01;;;;;;;11.23;3.17;;;18.70;99.20;;;18.59;64.04;101117.19;4993222;28;20053;-83
2023/08/10 06:54:28;;;;;;;10.75;3.20;;;18.80;98.50;;;18.66;62.51;101119.72;4991743;28;20048;-83
2023/08/10 06:56:55;;;;;;;12.13;3.60;;;18.80;96.80;;;18.77;63.69;101121.53;4991563;28;20111;-83
2023/08/10 06:59:23;;;;;;;10.57;3.78;;;19.00;98.20;;;18.80;62.68;101120.22;4992392;28;20078;-83
2023/08/10 07:01:50;;;;;;;8.45;3.22;;;19.00;97.00;;;18.69;63.37;101124.63;4994998;28;20662;-83
2023/08/10 07:04:18;;;;;;;16.65;4.13;;;18.90;97.60;;;18.76;63.84;101122.59;4993772;28;20050;-83
2023/08/10 07:06:46;;;;;;;8.82;3.33;;;18.90;98.10;;;18.82;63.73;101124.28;4995459;28;20064;-84
2023/08/10 07:09:14;;;;;;;12.10;3.47;;;18.90;98.00;;;18.78;63.09;101123.97;4990799;28;20130;-83
2023/08/10 07:11:41;;;;;;;10.60;3.38;;;18.90;97.50;;;18.68;63.57;101123.81;4990594;28;20044;-83
2023/08/10 07:14:09;;;;;;;14.25;3.92;;;18.80;98.00;;;18.62;63.76;101123.97;4992721;28;20540;-83
2023/08/10 07:16:36;;;;;;;13.68;3.72;;;18.70;98.30;;;18.56;64.36;101124.97;4993202;28;20121;-83
2023/08/10 07:19:03;;;;;;;10.60;3.65;;;18.60;98.70;;;18.51;64.85;101123.84;4993924;28;20976;-83
2023/08/10 07:21:30;;;;;;;15.45;3.72;;;18.50;99.70;;;18.45;64.01;101119.44;4994548;28;20042;-83
2023/08/10 07:23:58;;;;;;;9.75;3.40;;;18.50;98.90;;;18.44;64.95;101120.47;4993037;28;20043;-83
2023/08/10 07:26:26;;;;;;;13.00;3.08;;;18.50;99.70;;;18.41;64.42;101123.69;4987848;28;20117;-83
2023/08/10 07:28:54;;;;;;;8.90;3.45;;;18.40;99.10;;;18.43;64.54;101121.53;4984605;28;20141;-83
2023/08/10 07:31:21;;;;;;;18.17;4.00;;;18.40;99.10;;;18.46;63.90;101126.47;4992424;28;20049;-83
2023/08/10 07:33:49;;;;;;;10.88;3.88;;;18.40;98.70;;;18.47;63.82;101128.09;4995140;28;20104;-83
2023/08/10 07:36:16;;;;;;;13.27;3.60;;;18.40;98.70;;;18.51;63.03;101123.84;4989878;28;20038;-83
2023/08/10 07:38:43;;;;;;;12.13;4.10;;;18.50;97.80;;;18.59;63.76;101130.69;4994013;28;20046;-83
2023/08/10 07:41:11;;;;;;;12.20;4.18;;;18.50;98.50;;;18.67;63.30;101121.34;4993756;28;20066;-83
2023/08/10 07:43:39;;;;;;;12.35;3.80;;;18.70;97.80;;;18.71;61.98;101125.22;5004317;28;20049;-83
2023/08/10 07:46:06;;;;;;;11.65;3.95;;;18.80;96.30;;;18.73;61.57;101123.91;4991957;28;20121;-83
2023/08/10 07:48:34;;;;;;;12.95;3.72;;;18.80;96.00;;;18.83;61.55;101125.09;5003998;28;20055;-84
2023/08/10 07:51:01;;;;;;;10.13;3.40;;;18.90;95.90;;;18.87;61.80;101121.66;4990248;28;20395;-83
2023/08/10 07:53:29;;;;;;;13.02;3.25;;;18.90;95.80;;;18.93;62.01;101120.66;4990111;28;20049;-83
2023/08/10 07:55:56;;;;;;;12.13;3.50;;;19.00;95.70;;;19.02;62.12;101124.56;4992693;28;20048;-83
2023/08/10 07:58:24;;;;;;;9.45;3.40;;;19.10;96.00;;;19.08;59.95;101121.91;4991162;28;20604;-83
2023/08/10 08:00:53;;;;;;;10.48;3.45;;;19.20;94.00;;;19.12;59.46;101118.44;4993307;28;20462;-83
2023/08/10 08:03:20;;;;;;;11.27;3.40;;;19.20;93.30;;;19.17;60.09;101123.91;4985978;28;20073;-83
2023/08/10 08:05:47;;;;;;;13.05;4.00;;;19.30;93.90;;;19.22;61.31;101123.16;4991536;28;20125;-83
2023/08/10 08:08:14;;;;;;;9.30;3.35;;;19.30;94.90;;;19.32;61.06;101117.88;4992790;28;20196;-83
2023/08/10 08:10:42;;;;;;;14.95;4.72;;;19.50;94.80;;;19.36;61.82;101127.13;4993703;28;20042;-83
2023/08/10 08:13:09;;;;;;;10.82;3.38;;;19.50;95.40;;;19.38;61.78;101121.47;4991591;28;20561;-83
2023/08/10 08:15:38;;;;;;;9.50;3.50;;;19.50;95.20;;;19.37;59.42;101123.34;4992972;28;20077;-83
2023/08/10 08:18:44;;;;;;;13.15;3.55;;;19.50;92.70;;;19.43;59.54;101121.53;4983281;28;20050;-83
2023/08/10 08:21:13;;;;;;;15.88;4.00;;;19.60;92.90;;;19.49;59.79;101121.31;4991099;28;20046;-83
2023/08/10 08:23:40;;;;;;;19.95;3.92;;;19.60;93.00;;;19.53;60.62;101114.34;4990397;28;20126;-83
2023/08/10 08:26:07;;;;;;;11.75;3.13;;;19.70;93.80;;;19.58;59.86;101115.47;4989972;28;20042;-83
2023/08/10 08:28:35;;;;;;;10.27;3.22;;;19.70;93.20;;;19.64;57.87;101114.47;4999481;28;20504;-83
2023/08/10 08:31:02;;;;;;;9.05;3.53;;;19.80;91.00;;;19.64;55.18;101109.88;4991508;28;20035;-83
2023/08/10 08:33:30;;;;;;;9.48;3.13;;;19.80;87.80;;;19.67;55.14;101108.56;4991368;28;20057;-83
2023/08/10 08:35:58;;;;;;;12.40;3.38;;;19.80;87.50;;;19.70;55.06;101105.31;4993069;28;20053;-83
2023/08/10 08:38:27;;;;;;;10.90;3.17;;;19.90;87.70;;;19.67;54.62;101108.56;4987503;28;20046;-83
2023/08/10 08:40:55;;;;;;;10.27;3.47;;;19.80;86.90;;;19.70;55.37;101113.44;4990946;28;20129;-83
2023/08/10 08:43:23;;;;;;;9.60;2.60;;;19.80;88.00;;;19.70;55.40;101110.72;4991423;28;20042;-83
2023/08/10 08:45:51;;;;;;;8.02;2.40;;;19.90;87.60;;;19.77;55.23;101108.66;4990094;28;20125;-83
2023/08/10 08:48:20;;;;;;;8.13;2.88;;;19.90;87.50;;;19.80;54.91;101106.22;4983132;28;20542;-83
2023/08/10 08:50:48;;;;;;;10.05;3.25;;;20.00;86.60;;;19.87;55.78;101106.03;4986628;28;20038;-84
2023/08/10 08:53:16;;;;;;;8.35;2.60;;;20.10;88.10;;;19.90;56.93;101102.78;4987316;28;20092;-83
2023/08/10 08:55:46;;;;;;;10.48;2.70;;;20.20;88.40;;;19.96;56.95;101095.50;4986075;28;20045;-83
2023/08/10 08:58:15;;;;;;;8.30;2.30;;;20.20;89.00;;;20.02;54.98;101095.31;4985318;28;20448;-83
2023/08/10 09:00:47;;;;;;;10.70;2.83;;;20.30;87.00;;;20.07;56.26;101102.66;4987014;28;20041;-84
2023/08/10 09:03:15;;;;;;;10.07;2.85;;;20.30;88.40;;;20.09;54.99;101099.69;4991820;28;20046;-84
2023/08/10 09:05:42;;;;;;;9.43;3.08;;;20.30;86.90;;;20.09;55.57;101102.41;4991768;28;20038;-82
2023/08/10 09:08:10;;;;;;;7.53;2.70;;;20.30;86.90;;;20.09;54.04;101089.69;4992837;28;20073;-82
2023/08/10 09:10:39;;;;;;;7.90;2.53;;;20.30;85.30;;;20.07;52.91;101089.13;5010757;28;20069;-80
2023/08/10 09:13:16;;;;;;;6.80;2.90;;;20.30;83.90;;;20.03;52.11;101083.41;4984144;28;20450;-80
2023/08/10 09:15:43;;;;;;;5.70;2.55;;;20.40;83.30;;;20.02;53.70;101084.50;4982774;28;20030;-80
2023/08/10 09:18:11;;;;;;;8.95;3.03;;;20.30;84.70;;;20.10;52.62;101095.91;4989083;28;20058;-80
2023/08/10 09:20:38;;;;;;;9.50;3.00;;;20.40;83.50;;;20.01;52.71;101080.16;4987203;28;20070;-80
2023/08/10 09:23:06;;;;;;;7.65;2.83;;;20.30;83.50;;;20.03;54.14;101088.81;4983192;28;20546;-81
2023/08/10 09:25:39;;;;;;;7.65;2.88;;;20.30;85.30;;;20.04;54.81;101087.75;4991573;28;20126;-80
2023/08/10 09:28:11;;;;;;;8.07;2.85;;;20.30;85.80;;;20.09;54.56;101089.69;4983205;28;20510;-80
2023/08/10 09:30:38;;;;;;;9.63;3.10;;;20.40;85.50;;;20.16;55.83;101084.06;4973682;28;20047;-80
2023/08/10 09:33:06;;;;;;;6.60;2.60;;;20.40;86.60;;;20.25;54.84;101077.06;4990891;28;20045;-80
2023/08/10 09:35:33;;;;;;;8.45;3.15;;;20.50;86.00;;;20.28;52.75;101082.78;4980509;28;20035;-80
2023/08/10 09:38:02;;;;;;;10.02;2.45;;;20.60;83.50;;;20.31;53.17;101079.56;4982132;28;20117;-81
2023/08/10 09:40:30;;;;;;;7.72;2.75;;;20.60;83.80;;;20.39;54.42;101075.53;4973112;28;20047;-81
2023/08/10 09:42:58;;;;;;;8.68;3.00;;;20.70;85.10;;;20.36;53.57;101081.47;4983788;28;20051;-81
2023/08/10 09:45:27;;;;;;;7.75;2.47;;;20.70;83.90;;;20.36;53.52;101084.19;4990661;28;20108;-81
2023/08/10 09:47:55;;;;;;;7.60;2.70;;;20.70;84.20;;;20.39;53.92;101086.34;4989382;28;20084;-81
2023/08/10 09:50:23;;;;;;;6.82;2.80;;;20.70;84.30;;;20.41;52.86;101086.13;4984842;28;20064;-80
2023/08/10 09:52:52;;;;;;;9.00;2.90;;;20.70;83.10;;;20.51;53.46;101091.63;4993211;28;20050;-81
2023/08/10 09:55:19;;;;;;;9.43;2.88;;;20.80;84.10;;;20.51;51.81;101092.44;5001713;28;20039;-81
2023/08/10 09:57:49;;;;;;;8.93;3.20;;;20.80;82.20;;;20.48;51.33;101086.72;4989814;28;20074;-81
2023/08/10 10:00:19;;;;;;;9.90;3.10;;;20.80;81.50;;;20.38;50.92;101087.44;5005041;28;20085;-80
2023/08/10 10:02:47;;;;;;;8.75;2.60;;;20.70;80.50;;;20.38;52.71;101087.44;4989718;28;20050;-80
2023/08/10 10:05:16;;;;;;;11.00;2.80;;;20.70;82.90;;;20.43;52.60;101092.88;4997267;28;20142;-80
2023/08/10 10:07:45;;;;;;;8.65;2.63;;;20.70;82.90;;;20.47;53.07;101096.75;4992512;28;20034;-80
2023/08/10 10:10:15;;;;;;;5.40;2.78;;;20.80;83.20;;;20.52;54.83;101098.66;4989803;28;20432;-80
2023/08/10 10:12:48;;;;;;;10.82;3.20;;;20.80;85.60;;;20.49;53.59;101089.16;4982162;28;20514;-80
2023/08/10 10:15:18;;;;;;;11.18;3.63;;;20.80;83.90;;;20.49;53.51;101091.88;4979390;28;20207;-80